sensor_id;sensor_type;location;lat;lon;timestamp;P1;durP1;ratioP1;P2;durP2;ratioP2
45318;SDS011;31057;48.498;32.260;2024-03-29T00:01:09;40.35;;;15.35;;
45318;SDS011;31057;48.498;32.260;2024-03-29T00:03:10;52.33;;;16.98;;
45318;SDS011;31057;48.498;32.260;2024-03-29T00:05:11;49.58;;;17.42;;
45318;SDS011;31057;48.498;32.260;2024-03-29T00:07:12;46.97;;;15.93;;
45318;SDS011;31057;48.498;32.260;2024-03-29T00:09:13;46.90;;;16.20;;
45318;SDS011;31057;48.498;32.260;2024-03-29T00:11:13;40.50;;;16.70;;
45318;SDS011;31057;48.498;32.260;2024-03-29T00:13:14;45.47;;;17.30;;
45318;SDS011;31057;48.498;32.260;2024-03-29T00:15:15;47.88;;;17.05;;
45318;SDS011;31057;48.498;32.260;2024-03-29T00:17:16;42.97;;;16.50;;
45318;SDS011;31057;48.498;32.260;2024-03-29T00:19:18;42.80;;;16.60;;
45318;SDS011;31057;48.498;32.260;2024-03-29T00:21:19;51.53;;;17.52;;
45318;SDS011;31057;48.498;32.260;2024-03-29T00:23:20;59.97;;;19.17;;
45318;SDS011;31057;48.498;32.260;2024-03-29T00:25:21;48.97;;;16.17;;
45318;SDS011;31057;48.498;32.260;2024-03-29T00:27:22;51.60;;;17.00;;
45318;SDS011;31057;48.498;32.260;2024-03-29T00:29:25;52.70;;;16.70;;
45318;SDS011;31057;48.498;32.260;2024-03-29T00:31:27;53.38;;;17.25;;
45318;SDS011;31057;48.498;32.260;2024-03-29T00:33:28;40.78;;;16.08;;
45318;SDS011;31057;48.498;32.260;2024-03-29T00:35:29;39.25;;;17.60;;
45318;SDS011;31057;48.498;32.260;2024-03-29T00:39:32;41.00;;;16.13;;
45318;SDS011;31057;48.498;32.260;2024-03-29T00:41:32;44.90;;;17.58;;
45318;SDS011;31057;48.498;32.260;2024-03-29T00:43:33;49.05;;;16.52;;
45318;SDS011;31057;48.498;32.260;2024-03-29T00:45:34;43.85;;;18.67;;
45318;SDS011;31057;48.498;32.260;2024-03-29T00:47:35;44.40;;;17.73;;
45318;SDS011;31057;48.498;32.260;2024-03-29T00:49:36;54.42;;;19.63;;
45318;SDS011;31057;48.498;32.260;2024-03-29T00:51:37;53.47;;;18.40;;
45318;SDS011;31057;48.498;32.260;2024-03-29T00:53:39;55.45;;;18.80;;
45318;SDS011;31057;48.498;32.260;2024-03-29T00:55:40;52.45;;;19.90;;
45318;SDS011;31057;48.498;32.260;2024-03-29T00:57:41;43.92;;;19.00;;
45318;SDS011;31057;48.498;32.260;2024-03-29T00:59:42;53.35;;;18.85;;
45318;SDS011;31057;48.498;32.260;2024-03-29T01:01:44;54.30;;;18.42;;
45318;SDS011;31057;48.498;32.260;2024-03-29T01:03:45;77.95;;;37.78;;
45318;SDS011;31057;48.498;32.260;2024-03-29T01:05:46;51.60;;;18.50;;
45318;SDS011;31057;48.498;32.260;2024-03-29T01:07:47;58.58;;;18.25;;
45318;SDS011;31057;48.498;32.260;2024-03-29T01:09:48;54.50;;;18.85;;
45318;SDS011;31057;48.498;32.260;2024-03-29T01:11:50;64.68;;;19.88;;
45318;SDS011;31057;48.498;32.260;2024-03-29T01:13:52;49.00;;;18.02;;
45318;SDS011;31057;48.498;32.260;2024-03-29T01:15:53;45.40;;;19.25;;
45318;SDS011;31057;48.498;32.260;2024-03-29T01:17:54;49.20;;;18.52;;
45318;SDS011;31057;48.498;32.260;2024-03-29T01:19:55;49.17;;;18.65;;
45318;SDS011;31057;48.498;32.260;2024-03-29T01:21:56;43.88;;;20.30;;
45318;SDS011;31057;48.498;32.260;2024-03-29T01:23:57;54.83;;;21.08;;
45318;SDS011;31057;48.498;32.260;2024-03-29T01:25:58;58.78;;;19.42;;
45318;SDS011;31057;48.498;32.260;2024-03-29T01:27:59;44.17;;;19.88;;
45318;SDS011;31057;48.498;32.260;2024-03-29T01:29:59;54.65;;;19.35;;
45318;SDS011;31057;48.498;32.260;2024-03-29T01:34:02;45.10;;;18.63;;
45318;SDS011;31057;48.498;32.260;2024-03-29T01:36:04;58.97;;;19.27;;
45318;SDS011;31057;48.498;32.260;2024-03-29T01:38:05;54.90;;;19.15;;
45318;SDS011;31057;48.498;32.260;2024-03-29T01:40:06;56.35;;;20.23;;
45318;SDS011;31057;48.498;32.260;2024-03-29T01:42:08;49.08;;;18.25;;
45318;SDS011;31057;48.498;32.260;2024-03-29T01:44:09;56.05;;;20.63;;
45318;SDS011;31057;48.498;32.260;2024-03-29T01:46:10;50.10;;;19.40;;
45318;SDS011;31057;48.498;32.260;2024-03-29T01:48:11;67.15;;;21.83;;
45318;SDS011;31057;48.498;32.260;2024-03-29T01:50:12;59.10;;;21.27;;
45318;SDS011;31057;48.498;32.260;2024-03-29T01:52:14;56.10;;;21.73;;
45318;SDS011;31057;48.498;32.260;2024-03-29T01:54:16;59.53;;;23.63;;
45318;SDS011;31057;48.498;32.260;2024-03-29T01:56:18;60.53;;;22.30;;
45318;SDS011;31057;48.498;32.260;2024-03-29T01:58:22;49.00;;;20.02;;
45318;SDS011;31057;48.498;32.260;2024-03-29T02:02:25;56.47;;;21.00;;
45318;SDS011;31057;48.498;32.260;2024-03-29T02:04:26;54.88;;;19.30;;
45318;SDS011;31057;48.498;32.260;2024-03-29T02:06:27;68.27;;;20.73;;
45318;SDS011;31057;48.498;32.260;2024-03-29T02:08:29;56.83;;;18.60;;
45318;SDS011;31057;48.498;32.260;2024-03-29T02:10:30;52.85;;;18.98;;
45318;SDS011;31057;48.498;32.260;2024-03-29T02:12:31;49.10;;;19.33;;
45318;SDS011;31057;48.498;32.260;2024-03-29T02:14:32;44.17;;;18.58;;
45318;SDS011;31057;48.498;32.260;2024-03-29T02:16:32;47.38;;;21.35;;
45318;SDS011;31057;48.498;32.260;2024-03-29T02:18:33;43.72;;;18.27;;
45318;SDS011;31057;48.498;32.260;2024-03-29T02:20:34;42.88;;;17.75;;
45318;SDS011;31057;48.498;32.260;2024-03-29T02:22:40;50.63;;;18.20;;
45318;SDS011;31057;48.498;32.260;2024-03-29T02:24:48;47.33;;;19.27;;
45318;SDS011;31057;48.498;32.260;2024-03-29T02:26:49;54.17;;;18.13;;
45318;SDS011;31057;48.498;32.260;2024-03-29T02:28:51;46.80;;;18.63;;
45318;SDS011;31057;48.498;32.260;2024-03-29T02:30:52;53.60;;;19.17;;
45318;SDS011;31057;48.498;32.260;2024-03-29T02:32:53;47.85;;;18.67;;
45318;SDS011;31057;48.498;32.260;2024-03-29T02:34:54;40.90;;;17.15;;
45318;SDS011;31057;48.498;32.260;2024-03-29T02:36:54;42.33;;;17.17;;
45318;SDS011;31057;48.498;32.260;2024-03-29T02:38:57;40.03;;;17.70;;
45318;SDS011;31057;48.498;32.260;2024-03-29T02:40:58;37.92;;;16.20;;
45318;SDS011;31057;48.498;32.260;2024-03-29T02:42:59;41.13;;;16.92;;
45318;SDS011;31057;48.498;32.260;2024-03-29T02:45:00;46.63;;;17.50;;
45318;SDS011;31057;48.498;32.260;2024-03-29T02:47:01;47.05;;;16.75;;
45318;SDS011;31057;48.498;32.260;2024-03-29T02:49:01;42.58;;;17.55;;
45318;SDS011;31057;48.498;32.260;2024-03-29T02:51:03;39.58;;;17.27;;
45318;SDS011;31057;48.498;32.260;2024-03-29T02:53:04;40.40;;;18.00;;
45318;SDS011;31057;48.498;32.260;2024-03-29T02:55:05;37.67;;;16.05;;
45318;SDS011;31057;48.498;32.260;2024-03-29T02:57:07;41.42;;;15.70;;
45318;SDS011;31057;48.498;32.260;2024-03-29T02:59:08;40.30;;;17.30;;
45318;SDS011;31057;48.498;32.260;2024-03-29T03:01:09;38.13;;;15.90;;
45318;SDS011;31057;48.498;32.260;2024-03-29T03:03:10;30.20;;;13.93;;
45318;SDS011;31057;48.498;32.260;2024-03-29T03:05:10;43.67;;;16.15;;
45318;SDS011;31057;48.498;32.260;2024-03-29T03:07:11;29.73;;;15.68;;
45318;SDS011;31057;48.498;32.260;2024-03-29T03:09:31;39.67;;;14.93;;
45318;SDS011;31057;48.498;32.260;2024-03-29T03:11:50;30.40;;;15.30;;
45318;SDS011;31057;48.498;32.260;2024-03-29T03:13:51;35.78;;;15.95;;
45318;SDS011;31057;48.498;32.260;2024-03-29T03:15:52;35.28;;;14.75;;
45318;SDS011;31057;48.498;32.260;2024-03-29T03:17:53;28.63;;;14.63;;
45318;SDS011;31057;48.498;32.260;2024-03-29T03:19:54;35.63;;;14.95;;
45318;SDS011;31057;48.498;32.260;2024-03-29T03:21:55;26.15;;;16.42;;
45318;SDS011;31057;48.498;32.260;2024-03-29T03:23:56;28.17;;;15.38;;
45318;SDS011;31057;48.498;32.260;2024-03-29T03:25:57;28.73;;;15.40;;
45318;SDS011;31057;48.498;32.260;2024-03-29T03:28:00;37.33;;;17.30;;
45318;SDS011;31057;48.498;32.260;2024-03-29T03:30:00;34.42;;;16.25;;
45318;SDS011;31057;48.498;32.260;2024-03-29T03:32:01;33.25;;;15.50;;
45318;SDS011;31057;48.498;32.260;2024-03-29T03:34:03;30.88;;;15.63;;
45318;SDS011;31057;48.498;32.260;2024-03-29T03:36:04;29.50;;;15.77;;
45318;SDS011;31057;48.498;32.260;2024-03-29T03:38:05;29.43;;;16.43;;
45318;SDS011;31057;48.498;32.260;2024-03-29T03:40:06;24.95;;;15.65;;
45318;SDS011;31057;48.498;32.260;2024-03-29T03:42:07;38.25;;;20.38;;
45318;SDS011;31057;48.498;32.260;2024-03-29T03:44:08;33.65;;;18.73;;
45318;SDS011;31057;48.498;32.260;2024-03-29T03:46:09;26.27;;;14.90;;
45318;SDS011;31057;48.498;32.260;2024-03-29T03:48:10;25.77;;;14.75;;
45318;SDS011;31057;48.498;32.260;2024-03-29T03:50:11;37.40;;;14.75;;
45318;SDS011;31057;48.498;32.260;2024-03-29T03:52:12;29.38;;;14.15;;
45318;SDS011;31057;48.498;32.260;2024-03-29T03:54:13;24.48;;;13.45;;
45318;SDS011;31057;48.498;32.260;2024-03-29T03:56:14;29.17;;;12.85;;
45318;SDS011;31057;48.498;32.260;2024-03-29T03:58:16;32.97;;;14.70;;
45318;SDS011;31057;48.498;32.260;2024-03-29T04:00:18;20.92;;;12.77;;
45318;SDS011;31057;48.498;32.260;2024-03-29T04:02:20;19.73;;;12.98;;
45318;SDS011;31057;48.498;32.260;2024-03-29T04:04:21;31.50;;;17.15;;
45318;SDS011;31057;48.498;32.260;2024-03-29T04:06:21;32.38;;;14.00;;
45318;SDS011;31057;48.498;32.260;2024-03-29T04:08:22;23.23;;;11.05;;
45318;SDS011;31057;48.498;32.260;2024-03-29T04:10:23;27.90;;;13.30;;
45318;SDS011;31057;48.498;32.260;2024-03-29T04:12:24;30.10;;;15.43;;
45318;SDS011;31057;48.498;32.260;2024-03-29T04:14:25;24.40;;;12.75;;
45318;SDS011;31057;48.498;32.260;2024-03-29T04:16:26;51.33;;;25.92;;
45318;SDS011;31057;48.498;32.260;2024-03-29T04:18:27;25.08;;;13.10;;
45318;SDS011;31057;48.498;32.260;2024-03-29T04:20:28;21.58;;;11.45;;
45318;SDS011;31057;48.498;32.260;2024-03-29T04:22:30;26.27;;;12.52;;
45318;SDS011;31057;48.498;32.260;2024-03-29T04:24:31;27.83;;;12.50;;
45318;SDS011;31057;48.498;32.260;2024-03-29T04:26:32;31.07;;;13.27;;
45318;SDS011;31057;48.498;32.260;2024-03-29T04:28:33;22.97;;;13.23;;
45318;SDS011;31057;48.498;32.260;2024-03-29T04:30:34;22.98;;;11.07;;
45318;SDS011;31057;48.498;32.260;2024-03-29T04:32:35;19.88;;;10.63;;
45318;SDS011;31057;48.498;32.260;2024-03-29T04:34:36;25.50;;;11.88;;
45318;SDS011;31057;48.498;32.260;2024-03-29T04:38:39;20.83;;;10.55;;
45318;SDS011;31057;48.498;32.260;2024-03-29T04:40:40;34.25;;;13.25;;
45318;SDS011;31057;48.498;32.260;2024-03-29T04:42:41;22.00;;;11.70;;
45318;SDS011;31057;48.498;32.260;2024-03-29T04:44:42;23.08;;;10.40;;
45318;SDS011;31057;48.498;32.260;2024-03-29T04:46:43;21.17;;;10.65;;
45318;SDS011;31057;48.498;32.260;2024-03-29T04:48:43;26.13;;;12.20;;
45318;SDS011;31057;48.498;32.260;2024-03-29T04:50:46;27.88;;;10.65;;
45318;SDS011;31057;48.498;32.260;2024-03-29T04:52:47;18.58;;;10.52;;
45318;SDS011;31057;48.498;32.260;2024-03-29T04:54:47;19.35;;;10.95;;
45318;SDS011;31057;48.498;32.260;2024-03-29T04:56:48;16.58;;;9.85;;
45318;SDS011;31057;48.498;32.260;2024-03-29T04:58:49;22.45;;;10.70;;
45318;SDS011;31057;48.498;32.260;2024-03-29T05:00:51;21.77;;;11.68;;
45318;SDS011;31057;48.498;32.260;2024-03-29T05:02:52;22.38;;;11.82;;
45318;SDS011;31057;48.498;32.260;2024-03-29T05:04:53;21.98;;;12.18;;
45318;SDS011;31057;48.498;32.260;2024-03-29T05:06:56;25.33;;;13.25;;
45318;SDS011;31057;48.498;32.260;2024-03-29T05:08:58;30.52;;;14.32;;
45318;SDS011;31057;48.498;32.260;2024-03-29T05:10:58;33.88;;;15.93;;
45318;SDS011;31057;48.498;32.260;2024-03-29T05:12:59;27.70;;;14.75;;
45318;SDS011;31057;48.498;32.260;2024-03-29T05:15:01;27.42;;;14.15;;
45318;SDS011;31057;48.498;32.260;2024-03-29T05:17:02;31.10;;;14.23;;
45318;SDS011;31057;48.498;32.260;2024-03-29T05:19:03;32.27;;;11.83;;
45318;SDS011;31057;48.498;32.260;2024-03-29T05:21:04;18.58;;;10.70;;
45318;SDS011;31057;48.498;32.260;2024-03-29T05:25:08;28.05;;;13.23;;
45318;SDS011;31057;48.498;32.260;2024-03-29T05:27:09;21.13;;;10.55;;
45318;SDS011;31057;48.498;32.260;2024-03-29T05:29:09;22.92;;;10.43;;
45318;SDS011;31057;48.498;32.260;2024-03-29T05:31:13;20.05;;;11.25;;
45318;SDS011;31057;48.498;32.260;2024-03-29T05:33:15;30.17;;;11.82;;
45318;SDS011;31057;48.498;32.260;2024-03-29T05:35:16;15.70;;;9.18;;
45318;SDS011;31057;48.498;32.260;2024-03-29T05:37:17;22.08;;;10.27;;
45318;SDS011;31057;48.498;32.260;2024-03-29T05:39:18;26.05;;;10.18;;
45318;SDS011;31057;48.498;32.260;2024-03-29T05:41:20;32.57;;;10.73;;
45318;SDS011;31057;48.498;32.260;2024-03-29T05:43:21;25.67;;;10.60;;
45318;SDS011;31057;48.498;32.260;2024-03-29T05:45:23;26.17;;;12.00;;
45318;SDS011;31057;48.498;32.260;2024-03-29T05:47:28;27.83;;;14.73;;
45318;SDS011;31057;48.498;32.260;2024-03-29T05:49:29;54.97;;;17.70;;
45318;SDS011;31057;48.498;32.260;2024-03-29T05:51:29;66.97;;;22.50;;
45318;SDS011;31057;48.498;32.260;2024-03-29T05:53:30;47.95;;;17.63;;
45318;SDS011;31057;48.498;32.260;2024-03-29T05:55:31;46.15;;;20.20;;
45318;SDS011;31057;48.498;32.260;2024-03-29T05:57:32;29.60;;;17.25;;
45318;SDS011;31057;48.498;32.260;2024-03-29T06:01:35;35.75;;;12.27;;
45318;SDS011;31057;48.498;32.260;2024-03-29T06:03:36;32.78;;;11.68;;
45318;SDS011;31057;48.498;32.260;2024-03-29T06:05:39;67.88;;;15.07;;
45318;SDS011;31057;48.498;32.260;2024-03-29T06:07:40;42.35;;;12.25;;
45318;SDS011;31057;48.498;32.260;2024-03-29T06:09:41;36.03;;;12.20;;
45318;SDS011;31057;48.498;32.260;2024-03-29T06:11:43;48.13;;;13.27;;
45318;SDS011;31057;48.498;32.260;2024-03-29T06:13:44;33.33;;;12.30;;
45318;SDS011;31057;48.498;32.260;2024-03-29T06:15:54;30.52;;;12.93;;
45318;SDS011;31057;48.498;32.260;2024-03-29T06:18:13;51.70;;;14.80;;
45318;SDS011;31057;48.498;32.260;2024-03-29T06:20:16;50.25;;;13.55;;
45318;SDS011;31057;48.498;32.260;2024-03-29T06:22:18;57.90;;;15.40;;
45318;SDS011;31057;48.498;32.260;2024-03-29T06:24:19;24.92;;;10.95;;
45318;SDS011;31057;48.498;32.260;2024-03-29T06:26:20;31.70;;;13.13;;
45318;SDS011;31057;48.498;32.260;2024-03-29T06:28:21;27.63;;;11.57;;
45318;SDS011;31057;48.498;32.260;2024-03-29T06:30:22;32.17;;;11.52;;
45318;SDS011;31057;48.498;32.260;2024-03-29T06:32:23;27.85;;;11.15;;
45318;SDS011;31057;48.498;32.260;2024-03-29T06:34:24;28.00;;;11.98;;
45318;SDS011;31057;48.498;32.260;2024-03-29T06:36:25;37.00;;;12.50;;
45318;SDS011;31057;48.498;32.260;2024-03-29T06:38:26;30.80;;;11.75;;
45318;SDS011;31057;48.498;32.260;2024-03-29T06:40:27;34.78;;;12.75;;
45318;SDS011;31057;48.498;32.260;2024-03-29T06:42:28;26.77;;;11.30;;
45318;SDS011;31057;48.498;32.260;2024-03-29T06:44:30;24.27;;;11.15;;
45318;SDS011;31057;48.498;32.260;2024-03-29T06:46:31;31.20;;;11.25;;
45318;SDS011;31057;48.498;32.260;2024-03-29T06:48:34;29.10;;;9.80;;
45318;SDS011;31057;48.498;32.260;2024-03-29T06:50:35;32.72;;;11.10;;
45318;SDS011;31057;48.498;32.260;2024-03-29T06:52:37;30.45;;;11.40;;
45318;SDS011;31057;48.498;32.260;2024-03-29T06:54:38;28.92;;;11.18;;
45318;SDS011;31057;48.498;32.260;2024-03-29T06:56:39;28.30;;;10.57;;
45318;SDS011;31057;48.498;32.260;2024-03-29T06:58:40;35.47;;;10.98;;
45318;SDS011;31057;48.498;32.260;2024-03-29T07:00:41;37.40;;;12.55;;
45318;SDS011;31057;48.498;32.260;2024-03-29T07:02:44;36.28;;;13.90;;
45318;SDS011;31057;48.498;32.260;2024-03-29T07:04:45;33.15;;;12.32;;
45318;SDS011;31057;48.498;32.260;2024-03-29T07:06:46;42.58;;;11.32;;
45318;SDS011;31057;48.498;32.260;2024-03-29T07:08:52;27.98;;;10.77;;
45318;SDS011;31057;48.498;32.260;2024-03-29T07:10:57;26.88;;;11.30;;
45318;SDS011;31057;48.498;32.260;2024-03-29T07:13:01;20.48;;;9.93;;
45318;SDS011;31057;48.498;32.260;2024-03-29T07:15:02;25.02;;;9.32;;
45318;SDS011;31057;48.498;32.260;2024-03-29T07:17:03;19.60;;;9.20;;
45318;SDS011;31057;48.498;32.260;2024-03-29T07:19:04;19.73;;;9.35;;
45318;SDS011;31057;48.498;32.260;2024-03-29T07:21:05;19.35;;;9.50;;
45318;SDS011;31057;48.498;32.260;2024-03-29T07:23:06;23.70;;;9.85;;
45318;SDS011;31057;48.498;32.260;2024-03-29T07:25:07;25.10;;;11.32;;
45318;SDS011;31057;48.498;32.260;2024-03-29T07:27:09;28.48;;;11.90;;
45318;SDS011;31057;48.498;32.260;2024-03-29T07:29:10;34.38;;;12.90;;
45318;SDS011;31057;48.498;32.260;2024-03-29T07:31:11;22.85;;;9.48;;
45318;SDS011;31057;48.498;32.260;2024-03-29T07:33:12;27.67;;;9.68;;
45318;SDS011;31057;48.498;32.260;2024-03-29T07:35:15;26.00;;;9.48;;
45318;SDS011;31057;48.498;32.260;2024-03-29T07:37:18;16.33;;;8.60;;
45318;SDS011;31057;48.498;32.260;2024-03-29T07:39:21;18.45;;;9.23;;
45318;SDS011;31057;48.498;32.260;2024-03-29T07:41:23;19.85;;;8.35;;
45318;SDS011;31057;48.498;32.260;2024-03-29T07:43:23;19.10;;;8.02;;
45318;SDS011;31057;48.498;32.260;2024-03-29T07:45:25;20.85;;;7.32;;
45318;SDS011;31057;48.498;32.260;2024-03-29T07:47:26;19.57;;;8.27;;
45318;SDS011;31057;48.498;32.260;2024-03-29T07:49:27;18.77;;;8.75;;
45318;SDS011;31057;48.498;32.260;2024-03-29T07:51:28;25.48;;;7.72;;
45318;SDS011;31057;48.498;32.260;2024-03-29T07:53:30;22.02;;;12.30;;
45318;SDS011;31057;48.498;32.260;2024-03-29T07:55:31;20.88;;;7.85;;
45318;SDS011;31057;48.498;32.260;2024-03-29T07:57:32;16.35;;;5.40;;
45318;SDS011;31057;48.498;32.260;2024-03-29T07:59:32;10.82;;;5.47;;
45318;SDS011;31057;48.498;32.260;2024-03-29T08:01:33;20.73;;;5.97;;
45318;SDS011;31057;48.498;32.260;2024-03-29T08:03:34;15.82;;;5.82;;
45318;SDS011;31057;48.498;32.260;2024-03-29T08:05:36;14.50;;;5.90;;
45318;SDS011;31057;48.498;32.260;2024-03-29T08:07:37;14.27;;;5.88;;
45318;SDS011;31057;48.498;32.260;2024-03-29T08:09:38;12.02;;;6.10;;
45318;SDS011;31057;48.498;32.260;2024-03-29T08:11:40;11.07;;;5.75;;
45318;SDS011;31057;48.498;32.260;2024-03-29T08:13:41;16.02;;;5.93;;
45318;SDS011;31057;48.498;32.260;2024-03-29T08:15:42;13.75;;;5.95;;
45318;SDS011;31057;48.498;32.260;2024-03-29T08:17:43;10.45;;;5.57;;
45318;SDS011;31057;48.498;32.260;2024-03-29T08:19:46;11.55;;;5.80;;
45318;SDS011;31057;48.498;32.260;2024-03-29T08:21:48;20.67;;;6.13;;
45318;SDS011;31057;48.498;32.260;2024-03-29T08:23:49;15.20;;;5.65;;
45318;SDS011;31057;48.498;32.260;2024-03-29T08:25:51;10.45;;;4.88;;
45318;SDS011;31057;48.498;32.260;2024-03-29T08:27:52;13.00;;;5.65;;
45318;SDS011;31057;48.498;32.260;2024-03-29T08:29:58;12.68;;;4.80;;
45318;SDS011;31057;48.498;32.260;2024-03-29T08:31:59;13.82;;;4.20;;
45318;SDS011;31057;48.498;32.260;2024-03-29T08:34:00;9.02;;;3.05;;
45318;SDS011;31057;48.498;32.260;2024-03-29T08:36:02;9.43;;;3.53;;
45318;SDS011;31057;48.498;32.260;2024-03-29T08:38:03;7.83;;;3.20;;
45318;SDS011;31057;48.498;32.260;2024-03-29T08:40:04;14.20;;;3.00;;
45318;SDS011;31057;48.498;32.260;2024-03-29T08:42:05;16.95;;;3.33;;
45318;SDS011;31057;48.498;32.260;2024-03-29T08:44:07;15.38;;;3.42;;
45318;SDS011;31057;48.498;32.260;2024-03-29T08:46:08;10.70;;;3.70;;
45318;SDS011;31057;48.498;32.260;2024-03-29T08:48:09;7.10;;;2.80;;
45318;SDS011;31057;48.498;32.260;2024-03-29T08:50:10;7.07;;;3.07;;
45318;SDS011;31057;48.498;32.260;2024-03-29T08:52:11;6.60;;;2.65;;
45318;SDS011;31057;48.498;32.260;2024-03-29T08:54:12;7.47;;;3.15;;
45318;SDS011;31057;48.498;32.260;2024-03-29T08:56:14;9.75;;;3.10;;
45318;SDS011;31057;48.498;32.260;2024-03-29T09:00:18;8.90;;;2.58;;
45318;SDS011;31057;48.498;32.260;2024-03-29T09:02:19;16.00;;;3.22;;
45318;SDS011;31057;48.498;32.260;2024-03-29T09:04:20;6.85;;;3.50;;
45318;SDS011;31057;48.498;32.260;2024-03-29T09:06:20;3.72;;;1.98;;
45318;SDS011;31057;48.498;32.260;2024-03-29T09:08:21;10.15;;;2.28;;
45318;SDS011;31057;48.498;32.260;2024-03-29T09:10:23;4.40;;;2.30;;
45318;SDS011;31057;48.498;32.260;2024-03-29T09:12:27;5.35;;;2.50;;
45318;SDS011;31057;48.498;32.260;2024-03-29T09:14:28;3.55;;;1.92;;
45318;SDS011;31057;48.498;32.260;2024-03-29T09:16:29;5.22;;;2.50;;
45318;SDS011;31057;48.498;32.260;2024-03-29T09:18:30;6.22;;;3.03;;
45318;SDS011;31057;48.498;32.260;2024-03-29T09:20:31;6.55;;;2.88;;
45318;SDS011;31057;48.498;32.260;2024-03-29T09:22:32;4.97;;;2.80;;
45318;SDS011;31057;48.498;32.260;2024-03-29T09:24:33;5.35;;;3.25;;
45318;SDS011;31057;48.498;32.260;2024-03-29T09:26:34;8.37;;;2.87;;
45318;SDS011;31057;48.498;32.260;2024-03-29T09:28:35;11.68;;;3.08;;
45318;SDS011;31057;48.498;32.260;2024-03-29T09:30:37;8.60;;;3.92;;
45318;SDS011;31057;48.498;32.260;2024-03-29T09:32:38;7.53;;;2.55;;
45318;SDS011;31057;48.498;32.260;2024-03-29T09:34:39;5.95;;;2.83;;
45318;SDS011;31057;48.498;32.260;2024-03-29T09:36:40;10.85;;;3.33;;
45318;SDS011;31057;48.498;32.260;2024-03-29T09:38:41;11.73;;;3.17;;
45318;SDS011;31057;48.498;32.260;2024-03-29T09:40:42;11.68;;;4.28;;
45318;SDS011;31057;48.498;32.260;2024-03-29T09:42:43;8.87;;;3.57;;
45318;SDS011;31057;48.498;32.260;2024-03-29T09:44:45;14.75;;;3.85;;
45318;SDS011;31057;48.498;32.260;2024-03-29T09:48:48;4.80;;;2.80;;
45318;SDS011;31057;48.498;32.260;2024-03-29T09:50:50;9.30;;;3.67;;
45318;SDS011;31057;48.498;32.260;2024-03-29T09:52:54;7.53;;;3.28;;
45318;SDS011;31057;48.498;32.260;2024-03-29T09:54:56;19.30;;;3.72;;
45318;SDS011;31057;48.498;32.260;2024-03-29T09:56:58;9.90;;;3.50;;
45318;SDS011;31057;48.498;32.260;2024-03-29T09:58:59;7.33;;;3.17;;
45318;SDS011;31057;48.498;32.260;2024-03-29T10:01:02;7.03;;;3.30;;
45318;SDS011;31057;48.498;32.260;2024-03-29T10:03:05;13.40;;;3.30;;
45318;SDS011;31057;48.498;32.260;2024-03-29T10:05:08;10.85;;;3.58;;
45318;SDS011;31057;48.498;32.260;2024-03-29T10:07:11;12.25;;;3.35;;
45318;SDS011;31057;48.498;32.260;2024-03-29T10:09:18;14.40;;;3.45;;
45318;SDS011;31057;48.498;32.260;2024-03-29T10:11:19;9.02;;;4.05;;
45318;SDS011;31057;48.498;32.260;2024-03-29T10:13:21;15.13;;;3.88;;
45318;SDS011;31057;48.498;32.260;2024-03-29T10:15:23;11.50;;;3.42;;
45318;SDS011;31057;48.498;32.260;2024-03-29T10:17:27;9.35;;;3.55;;
45318;SDS011;31057;48.498;32.260;2024-03-29T10:19:28;11.90;;;3.47;;
45318;SDS011;31057;48.498;32.260;2024-03-29T10:21:32;9.57;;;3.70;;
45318;SDS011;31057;48.498;32.260;2024-03-29T10:23:34;9.25;;;3.53;;
45318;SDS011;31057;48.498;32.260;2024-03-29T10:25:35;12.90;;;4.32;;
45318;SDS011;31057;48.498;32.260;2024-03-29T10:27:37;8.10;;;2.95;;
45318;SDS011;31057;48.498;32.260;2024-03-29T10:29:39;8.73;;;2.95;;
45318;SDS011;31057;48.498;32.260;2024-03-29T10:31:40;10.82;;;3.05;;
45318;SDS011;31057;48.498;32.260;2024-03-29T10:33:42;10.68;;;3.35;;
45318;SDS011;31057;48.498;32.260;2024-03-29T10:35:47;6.70;;;2.80;;
45318;SDS011;31057;48.498;32.260;2024-03-29T10:37:48;9.00;;;3.55;;
45318;SDS011;31057;48.498;32.260;2024-03-29T10:41:51;6.13;;;2.67;;
45318;SDS011;31057;48.498;32.260;2024-03-29T10:43:53;8.82;;;2.42;;
45318;SDS011;31057;48.498;32.260;2024-03-29T10:45:56;5.35;;;2.40;;
45318;SDS011;31057;48.498;32.260;2024-03-29T10:48:02;8.30;;;2.65;;
45318;SDS011;31057;48.498;32.260;2024-03-29T10:50:05;7.15;;;3.10;;
45318;SDS011;31057;48.498;32.260;2024-03-29T10:52:06;6.85;;;3.08;;
45318;SDS011;31057;48.498;32.260;2024-03-29T10:56:10;8.40;;;3.60;;
45318;SDS011;31057;48.498;32.260;2024-03-29T10:58:14;12.70;;;6.78;;
45318;SDS011;31057;48.498;32.260;2024-03-29T11:00:18;8.50;;;5.80;;
45318;SDS011;31057;48.498;32.260;2024-03-29T11:04:59;25.42;;;13.18;;
45318;SDS011;31057;48.498;32.260;2024-03-29T11:07:06;21.23;;;9.65;;
45318;SDS011;31057;48.498;32.260;2024-03-29T11:09:13;11.77;;;6.07;;
45318;SDS011;31057;48.498;32.260;2024-03-29T11:11:16;17.60;;;6.95;;
45318;SDS011;31057;48.498;32.260;2024-03-29T11:14:02;8.90;;;6.25;;
45318;SDS011;31057;48.498;32.260;2024-03-29T11:15:44;16.42;;;7.70;;
45318;SDS011;31057;48.498;32.260;2024-03-29T11:17:47;10.30;;;6.22;;
45318;SDS011;31057;48.498;32.260;2024-03-29T11:19:49;7.10;;;2.97;;
45318;SDS011;31057;48.498;32.260;2024-03-29T11:21:50;7.83;;;3.90;;
45318;SDS011;31057;48.498;32.260;2024-03-29T11:23:53;10.43;;;3.20;;
45318;SDS011;31057;48.498;32.260;2024-03-29T11:25:54;5.45;;;2.42;;
45318;SDS011;31057;48.498;32.260;2024-03-29T11:28:06;3.97;;;2.33;;
45318;SDS011;31057;48.498;32.260;2024-03-29T11:30:16;6.82;;;1.95;;
45318;SDS011;31057;48.498;32.260;2024-03-29T11:32:37;3.63;;;2.00;;
45318;SDS011;31057;48.498;32.260;2024-03-29T11:34:44;4.05;;;1.90;;
45318;SDS011;31057;48.498;32.260;2024-03-29T11:36:46;3.75;;;2.10;;
45318;SDS011;31057;48.498;32.260;2024-03-29T11:38:48;6.22;;;2.25;;
45318;SDS011;31057;48.498;32.260;2024-03-29T11:41:02;6.75;;;3.35;;
45318;SDS011;31057;48.498;32.260;2024-03-29T11:43:23;3.97;;;2.60;;
45318;SDS011;31057;48.498;32.260;2024-03-29T11:45:25;5.57;;;2.47;;
45318;SDS011;31057;48.498;32.260;2024-03-29T11:47:30;7.25;;;2.95;;
45318;SDS011;31057;48.498;32.260;2024-03-29T11:49:32;8.93;;;5.00;;
45318;SDS011;31057;48.498;32.260;2024-03-29T11:51:33;12.55;;;7.57;;
45318;SDS011;31057;48.498;32.260;2024-03-29T11:53:35;26.45;;;18.77;;
45318;SDS011;31057;48.498;32.260;2024-03-29T11:55:36;7.15;;;3.50;;
45318;SDS011;31057;48.498;32.260;2024-03-29T11:57:37;7.70;;;2.58;;
45318;SDS011;31057;48.498;32.260;2024-03-29T11:59:40;6.65;;;3.35;;
45318;SDS011;31057;48.498;32.260;2024-03-29T12:01:41;13.75;;;6.82;;
45318;SDS011;31057;48.498;32.260;2024-03-29T12:03:42;10.10;;;5.32;;
45318;SDS011;31057;48.498;32.260;2024-03-29T12:05:48;7.50;;;3.20;;
45318;SDS011;31057;48.498;32.260;2024-03-29T12:07:54;7.40;;;2.50;;
45318;SDS011;31057;48.498;32.260;2024-03-29T12:09:56;3.88;;;1.73;;
45318;SDS011;31057;48.498;32.260;2024-03-29T12:11:57;1.20;;;0.85;;